Flight Track Log - Related Links

Times and Time Zones

All times are in EDT time to prevent confusion due to time zone crossing. See the FLG4099 flight status page for this flight to view local times or setup timezone preferences in your user account.

Time Position Orientation Groundspeed Altitude Reporting Facility
EDT Latitude Longitude Course Direction KTS MPH feet Rate Location/Type
Mon 06:21:00 AM 44.3767 -73.6535 253° West  Level FlightAware Approximate
Mon 06:21:08 AM 44.3914 -73.3233 255° West 248 285 9,200  Level Boston Center
Mon 06:22:00 AM 44.3553 -73.7798 259° West  Level FlightAware Approximate
Mon 06:22:08 AM 44.3758 -73.4275 258° West 267 307 10,600  Level Boston Center
Mon 06:23:00 AM 44.3371 -73.9072 259° West  Level FlightAware Approximate
Mon 06:23:08 AM 44.3581 -73.5406 258° West 297 342 13,300  Level Boston Center
Mon 06:24:00 AM 44.3150 -74.0333 256° West  Level FlightAware Approximate
Mon 06:24:08 AM 44.3425 -73.6506 259° West 297 342 15,800  Level Boston Center
Mon 06:25:00 AM 44.2918 -74.1590 256° West  Level FlightAware Approximate
Mon 06:25:08 AM 44.3267 -73.7606 259° West 303 349 17,500  Level Boston Center
Mon 06:26:00 AM 44.2685 -74.2846 255° West  Level FlightAware Approximate
Mon 06:26:08 AM 44.3086 -73.8792 258° West 308 354 19,700  Level Boston Center
Mon 06:27:08 AM 44.2903 -74.0003 258° West 318 366 21,700 2,000 Climbing Boston Center
Mon 06:28:08 AM 44.2700 -74.1189 257° West 318 366 23,700 1,700 Climbing Boston Center
Mon 06:29:08 AM 44.2536 -74.2400 259° West 318 366 25,100 1,200 Climbing Boston Center
Mon 06:30:08 AM 44.2328 -74.3639 257° West 318 366 26,100 1,000 Climbing Boston Center
Mon 06:31:08 AM 44.2139 -74.4908 258° West 329 379 27,100 1,000 Climbing Boston Center
Mon 06:32:08 AM 44.1928 -74.6147 257° West 334 384 28,100 1,000 Climbing Boston Center
Mon 06:33:08 AM 44.1758 -74.7442 260° West 334 384 29,100 950 Climbing Boston Center
Mon 06:34:08 AM 44.1544 -74.8678 256° West 334 384 30,000 450 Climbing Boston Center
Mon 06:35:08 AM 44.1328 -75.0000 257° West 334 384 30,000  Level Boston Center
Mon 06:36:08 AM 44.1089 -75.1322 256° West 344 396 30,000  Level Boston Center
Mon 06:37:08 AM 44.0869 -75.2700 258° West 357 411 30,000  Level Boston Center
Mon 06:38:20 AM 44.0572 -75.4475 257° West 378 435 30,000  Level Boston Center
Mon 06:39:20 AM 44.0347 -75.5939 258° West 391 450 30,000  Level Boston Center
Mon 06:40:20 AM 44.0097 -75.7428 257° West 391 450 30,000  Level Boston Center
Mon 06:41:20 AM 43.9844 -75.8914 257° West 391 450 30,000  Level Boston Center
Mon 06:42:20 AM 43.9589 -76.0456 257° West 397 457 30,000  Level Boston Center
Mon 06:43:20 AM 43.9519 -76.1981 266° West 397 457 30,000  Level Boston Center
Mon 06:44:20 AM 43.9467 -76.3564 267° West 409 471 30,000  Level Boston Center
Mon 06:45:20 AM 43.9433 -76.5119 268° West 409 471 30,000  Level Boston Center
Mon 06:46:20 AM 43.9394 -76.6706 268° West 409 471 30,000  Level Boston Center
Mon 06:46:44 AM 43.9333 -76.7167 260° West 410 472 30,000  Level Toronto Center
Mon 06:47:44 AM 43.9167 -76.8833 262° West 410 472 30,000  Level Toronto Center
Mon 06:48:44 AM 43.9167 -77.0333 270° West 410 472 30,000  Level Toronto Center
Mon 06:49:44 AM 43.9000 -77.2000 262° West 410 472 30,000  Level Toronto Center
Mon 06:50:44 AM 43.8833 -77.3667 262° West 420 483 30,000  Level Toronto Center
Mon 06:51:44 AM 43.8667 -77.5333 262° West 420 483 30,000  Level Toronto Center
Mon 06:52:44 AM 43.8500 -77.6667 260° West 420 483 30,000  Level Toronto Center
Mon 06:53:44 AM 43.8167 -77.8333 255° West 420 483 30,000  Level Toronto Center
Mon 06:54:44 AM 43.7833 -78.0000 255° West 420 483 30,000  Level Toronto Center
Mon 06:55:44 AM 43.7667 -78.1500 261° West 420 483 30,000  Level Toronto Center
Mon 06:56:44 AM 43.7333 -78.3167 255° West 430 495 30,000  Level Toronto Center
Mon 06:57:44 AM 43.7000 -78.4833 255° West 430 495 30,000  Level Toronto Center
Mon 06:58:44 AM 43.7000 -78.6167 270° West 430 495 30,000  Level Toronto Center
Mon 06:59:44 AM 43.6500 -78.7833 248° West 430 495 30,000  Level Toronto Center
Mon 07:00:44 AM 43.5833 -78.9167 235° Southwest 440 506 30,000  Level Toronto Center
Mon 07:01:44 AM 43.5167 -79.0833 241° Southwest 440 506 30,000  Level Toronto Center
Mon 07:02:44 AM 43.4500 -79.2167 235° Southwest 440 506 30,000  Level Toronto Center
Mon 07:03:44 AM 43.4000 -79.3500 243° Southwest 440 506 30,000 -50 Level Toronto Center
Mon 07:04:44 AM 43.3167 -79.5000 233° Southwest 440 506 29,900 -550 Descending Toronto Center
Mon 07:05:44 AM 43.2667 -79.6333 243° Southwest 440 506 28,900 -961 Descending Toronto Center
Mon 07:07:45 AM 43.1503 -79.9344 242° Southwest 443 510 27,000 -961 Descending Cleveland Center
Mon 07:08:45 AM 43.0822 -80.0744 236° Southwest 454 522 26,000 -1,000 Descending Cleveland Center
Mon 07:09:45 AM 43.0181 -80.2169 238° Southwest 449 517 25,000 -1,000 Descending Cleveland Center
Mon 07:10:45 AM 42.9519 -80.3564 237° Southwest 449 517 24,000 -1,000 Descending Cleveland Center
Mon 07:11:45 AM 42.8894 -80.5011 240° Southwest 449 517 23,000 -504 Descending Cleveland Center
Mon 07:12:44 AM 42.8167 -80.6333 233° Southwest 420 483 23,000  Level Toronto Center
Mon 07:13:44 AM 42.7500 -80.7500 232° Southwest 410 472 23,000  Level Toronto Center
Mon 07:14:44 AM 42.6833 -80.8833 236° Southwest 400 460 23,000  Level Toronto Center
Mon 07:15:44 AM 42.6667 -81.0333 261° West 400 460 23,000  Level Toronto Center
Mon 07:16:44 AM 42.6500 -81.2000 262° West 400 460 23,000 -250 Level Toronto Center
Mon 07:17:44 AM 42.6333 -81.3333 260° West 400 460 22,500 -500 Descending Toronto Center
Mon 07:18:44 AM 42.6167 -81.4667 260° West 390 449 22,000 -350 Descending Toronto Center
Mon 07:19:44 AM 42.6167 -81.6333 270° West 380 437 21,800 -496 Descending Toronto Center
Mon 07:20:45 AM 42.6042 -81.7708 263° West 380 437 21,000 -893 Descending Cleveland Center
Mon 07:21:45 AM 42.6300 -81.8897 286° West 338 389 20,000 -1,000 Descending Cleveland Center
Mon 07:22:45 AM 42.6725 -81.9950 299° West 327 376 19,000 -750 Descending Cleveland Center
Mon 07:23:45 AM 42.7150 -82.0978 299° West 316 364 18,500 -650 Descending Cleveland Center
Mon 07:24:45 AM 42.7575 -82.1894 302° West 304 350 17,700 -900 Descending Cleveland Center
Mon 07:25:45 AM 42.7978 -82.2894 299° West 299 344 16,700 -1,067 Descending Cleveland Center
Mon 07:26:15 AM 42.7989 -82.3431 272° West 302 348 16,100 -1,100 Descending Cleveland Center
Mon 07:26:45 AM 42.7794 -82.3908 241° Southwest 281 323 15,600 -2,000 Descending Cleveland Center
Mon 07:27:45 AM 42.6933 -82.4419 204° Southwest 248 285 13,100 -2,250 Descending Cleveland Center
Mon 07:28:45 AM 42.6133 -82.4875 203° Southwest 278 320 11,100 -1,150 Descending Cleveland Center
Mon 07:29:45 AM 42.5394 -82.5303 203° Southwest 289 333 10,800 -900 Descending Cleveland Center
Mon 07:30:45 AM 42.4861 -82.6019 225° Southwest 274 315 9,300 -1,400 Descending Cleveland Center
Mon 07:31:45 AM 42.4453 -82.6794 234° Southwest 274 315 8,000 -800 Descending Cleveland Center
Mon 07:32:45 AM 42.3983 -82.7397 223° Southwest 250 288 7,700 -800 Descending Cleveland Center
Mon 07:33:45 AM 42.3883 -82.8181 260° West 212 244 6,400 -850 Descending Cleveland Center
Mon 07:34:45 AM 42.3722 -82.8964 254° West 217 250 6,000 -200 Descending Cleveland Center
Mon 07:35:45 AM 42.3583 -82.9744 256° West 217 250 6,000  Level Cleveland Center
Mon 07:36:00 AM 42.3556 -82.9967 260° West 213 245 6,000  Level Cleveland Center
Mon 07:36:55 AM 42.3606 -83.0617 276° West 188 216 6,000 -246 Level Cleveland Center
Mon 07:38:02 AM 42.3611 -83.1264 271° West 167 192 5,500 -472 Descending Cleveland Center
Mon 07:39:02 AM 42.3450 -83.1958 253° West 167 192 5,000 -783 Descending Cleveland Center
Mon 07:39:57 AM 42.3211 -83.2425 235° Southwest 169 194 4,000 -1,091 Descending Cleveland Center

Login

Don't have an account? Register now (free) for customized features, flight alerts, and more!